| time (UTC) | temp C | wind direction | speed KPH | gust KPH | rain 1hr cm | rain 24hr cm | rain mn cm | humidity % | barometer mb |
| 20260507074420 | 11 | 215 | 0.0 | 1.6 | 0.00 | 0.00 | 0.00 | 87 | 1019.2 |
| 20260507073918 | 11 | 184 | 1.6 | 1.6 | 0.00 | 0.00 | 0.00 | 87 | 1019.3 |
| 20260507073417 | 11 | 213 | 1.6 | 3.2 | 0.00 | 0.00 | 0.00 | 87 | 1019.2 |
| 20260507072916 | 11 | 216 | 1.6 | 1.6 | 0.00 | 0.00 | 0.00 | 87 | 1019.1 |
| 20260507072419 | 11 | 0 | 0.0 | 1.6 | 0.00 | 0.00 | 0.00 | 87 | 1019.0 |
| 20260507071918 | 11 | 173 | 1.6 | 3.2 | 0.00 | 0.00 | 0.00 | 87 | 1019.2 |
| 20260507071417 | 11 | 0 | 0.0 | 1.6 | 0.00 | 0.00 | 0.00 | 87 | 1019.1 |
| 20260507070915 | 11 | 127 | 3.2 | 4.8 | 0.00 | 0.00 | 0.00 | 87 | 1019.0 |
| 20260507070419 | 11 | 0 | 0.0 | 0.0 | 0.00 | 0.00 | 0.00 | 87 | 1019.2 |
| 20260507065918 | 11 | 0 | 0.0 | 0.0 | 0.00 | 0.00 | 0.00 | 87 | 1019.1 |
| 20260507065416 | 11 | 278 | 1.6 | 3.2 | 0.00 | 0.00 | 0.00 | 87 | 1019.1 |
| 20260507064915 | 11 | 201 | 0.0 | 1.6 | 0.00 | 0.00 | 0.00 | 87 | 1018.9 |
| 20260507064419 | 11 | 0 | 0.0 | 0.0 | 0.00 | 0.00 | 0.00 | 87 | 1019.0 |
| 20260507063918 | 11 | 0 | 0.0 | 1.6 | 0.00 | 0.00 | 0.00 | 87 | 1019.0 |
| 20260507063416 | 11 | 0 | 0.0 | 0.0 | 0.00 | 0.00 | 0.00 | 87 | 1019.1 |
| 20260507062915 | 11 | 0 | 0.0 | 0.0 | 0.00 | 0.00 | 0.00 | 87 | 1019.1 |
| 20260507062419 | 11 | 0 | 0.0 | 0.0 | 0.00 | 0.00 | 0.00 | 86 | 1018.9 |
| 20260507061918 | 11 | 113 | 3.2 | 3.2 | 0.00 | 0.00 | 0.00 | 86 | 1018.7 |
| 20260507061417 | 11 | 0 | 0.0 | 0.0 | 0.00 | 0.00 | 0.00 | 86 | 1018.8 |
| 20260507060916 | 11 | 0 | 0.0 | 0.0 | 0.00 | 0.00 | 0.00 | 86 | 1018.9 |
| 20260507060419 | 11 | 0 | 0.0 | 1.6 | 0.00 | 0.00 | 0.00 | 86 | 1018.8 |
| 20260507060019 | 11 | 0 | 0.0 | 0.0 | 0.00 | 0.00 | 0.00 | 85 | 1019.1 |
| 20260507055418 | 11 | 0 | 0.0 | 0.0 | 0.00 | 0.00 | 0.00 | 85 | 1018.9 |
| 20260507054916 | 11 | 0 | 0.0 | 0.0 | 0.00 | 0.00 | 0.00 | 85 | 1018.7 |
| 20260507054420 | 11 | 0 | 0.0 | 1.6 | 0.00 | 0.00 | 0.00 | 85 | 1018.9 |
| 20260507053918 | 11 | 0 | 0.0 | 0.0 | 0.00 | 0.00 | 0.00 | 85 | 1018.9 |
| 20260507053417 | 11 | 0 | 0.0 | 1.6 | 0.00 | 0.00 | 0.00 | 85 | 1018.8 |
| 20260507052936 | 11 | 147 | 1.6 | 3.2 | 0.00 | 0.00 | 0.00 | 85 | 1018.8 |
| 20260507052420 | 11 | 0 | 0.0 | 0.0 | 0.00 | 0.00 | 0.00 | 85 | 1019.0 |
| 20260507051939 | 11 | 0 | 0.0 | 0.0 | 0.00 | 0.00 | 0.00 | 84 | 1018.8 |
| 20260507051417 | 11 | 182 | 0.0 | 1.6 | 0.00 | 0.00 | 0.00 | 84 | 1018.7 |
| 20260507050916 | 12 | 0 | 0.0 | 0.0 | 0.00 | 0.00 | 0.00 | 84 | 1018.8 |
| 20260507050419 | 12 | 0 | 0.0 | 1.6 | 0.00 | 0.00 | 0.00 | 84 | 1018.7 |
| 20260507045918 | 12 | 0 | 0.0 | 0.0 | 0.00 | 0.00 | 0.00 | 84 | 1018.9 |
| 20260507045418 | 12 | 185 | 1.6 | 3.2 | 0.00 | 0.00 | 0.00 | 83 | 1018.8 |
| 20260507044916 | 12 | 167 | 1.6 | 3.2 | 0.00 | 0.00 | 0.00 | 83 | 1018.8 |
| 20260507044421 | 12 | 220 | 0.0 | 1.6 | 0.00 | 0.00 | 0.00 | 83 | 1018.7 |
| 20260507043919 | 12 | 145 | 1.6 | 3.2 | 0.00 | 0.00 | 0.00 | 83 | 1018.9 |
| 20260507043417 | 12 | 184 | 1.6 | 3.2 | 0.00 | 0.00 | 0.00 | 83 | 1018.7 |
| 20260507042916 | 12 | 189 | 3.2 | 3.2 | 0.00 | 0.00 | 0.00 | 83 | 1018.8 |
| 20260507042420 | 12 | 160 | 4.8 | 6.4 | 0.00 | 0.00 | 0.00 | 83 | 1018.7 |
| 20260507041919 | 12 | 168 | 3.2 | 4.8 | 0.00 | 0.00 | 0.00 | 83 | 1018.8 |
| 20260507041417 | 12 | 201 | 1.6 | 3.2 | 0.00 | 0.00 | 0.00 | 83 | 1018.9 |
| 20260507040939 | 12 | 191 | 3.2 | 4.8 | 0.00 | 0.00 | 0.00 | 83 | 1018.7 |
| 20260507040419 | 12 | 147 | 3.2 | 4.8 | 0.00 | 0.00 | 0.00 | 83 | 1018.7 |
| 20260507035918 | 12 | 196 | 4.8 | 6.4 | 0.00 | 0.00 | 0.00 | 83 | 1018.6 |
| 20260507035417 | 12 | 208 | 3.2 | 4.8 | 0.00 | 0.00 | 0.00 | 83 | 1018.6 |
| 20260507034916 | 12 | 199 | 3.2 | 4.8 | 0.00 | 0.00 | 0.00 | 82 | 1018.5 |
| 20260507034419 | 12 | 202 | 1.6 | 3.2 | 0.00 | 0.00 | 0.00 | 82 | 1018.6 |
| 20260507033919 | 12 | 214 | 3.2 | 6.4 | 0.00 | 0.00 | 0.00 | 82 | 1018.5 |
| 20260507033417 | 13 | 180 | 3.2 | 3.2 | 0.00 | 0.00 | 0.00 | 81 | 1018.5 |
| 20260507032917 | 13 | 169 | 3.2 | 3.2 | 0.00 | 0.00 | 0.00 | 81 | 1018.5 |
| 20260507032419 | 13 | 183 | 1.6 | 4.8 | 0.00 | 0.00 | 0.00 | 80 | 1018.7 |
| 20260507031918 | 13 | 176 | 3.2 | 4.8 | 0.00 | 0.00 | 0.00 | 80 | 1018.4 |
| 20260507030916 | 13 | 136 | 4.8 | 8.0 | 0.00 | 0.00 | 0.00 | 79 | 1018.4 |
| 20260507030419 | 13 | 197 | 3.2 | 3.2 | 0.00 | 0.00 | 0.00 | 79 | 1018.4 |
| 20260507025919 | 13 | 217 | 1.6 | 3.2 | 0.00 | 0.00 | 0.00 | 80 | 1018.4 |
| 20260507025417 | 13 | 210 | 3.2 | 6.4 | 0.00 | 0.00 | 0.00 | 79 | 1018.5 |
| 20260507024916 | 13 | 187 | 3.2 | 4.8 | 0.00 | 0.00 | 0.00 | 78 | 1018.5 |
| 20260507024419 | 13 | 211 | 4.8 | 4.8 | 0.00 | 0.00 | 0.00 | 78 | 1018.4 |
| 20260507023918 | 14 | 205 | 3.2 | 4.8 | 0.00 | 0.00 | 0.00 | 78 | 1018.5 |
| 20260507023417 | 14 | 203 | 3.2 | 4.8 | 0.00 | 0.00 | 0.00 | 77 | 1018.6 |
| 20260507022915 | 14 | 167 | 1.6 | 3.2 | 0.00 | 0.00 | 0.00 | 77 | 1018.3 |
| 20260507022419 | 15 | 228 | 1.6 | 6.4 | 0.00 | 0.00 | 0.00 | 77 | 1018.3 |
| 20260507021917 | 15 | 238 | 3.2 | 4.8 | 0.00 | 0.00 | 0.00 | 76 | 1018.2 |
| 20260507021417 | 15 | 213 | 4.8 | 8.0 | 0.00 | 0.00 | 0.00 | 75 | 1018.3 |
| 20260507020916 | 15 | 185 | 1.6 | 3.2 | 0.00 | 0.00 | 0.00 | 75 | 1018.3 |
| 20260507020420 | 16 | 198 | 3.2 | 4.8 | 0.00 | 0.00 | 0.00 | 73 | 1018.2 |
| 20260507015918 | 16 | 196 | 1.6 | 3.2 | 0.00 | 0.00 | 0.00 | 73 | 1018.3 |
| 20260507015417 | 16 | 172 | 1.6 | 4.8 | 0.00 | 0.00 | 0.00 | 72 | 1018.4 |
| 20260507014916 | 16 | 185 | 3.2 | 4.8 | 0.00 | 0.00 | 0.00 | 72 | 1018.2 |
| 20260507014420 | 16 | 202 | 1.6 | 3.2 | 0.00 | 0.00 | 0.00 | 71 | 1018.1 |
| 20260507013917 | 17 | 208 | 4.8 | 6.4 | 0.00 | 0.00 | 0.00 | 70 | 1018.2 |
| 20260507013417 | 17 | 185 | 3.2 | 3.2 | 0.00 | 0.00 | 0.00 | 70 | 1018.1 |
| 20260507012915 | 17 | 198 | 3.2 | 8.0 | 0.00 | 0.00 | 0.00 | 69 | 1018.1 |
| 20260507012420 | 17 | 176 | 3.2 | 6.4 | 0.00 | 0.00 | 0.00 | 69 | 1018.3 |
| 20260507011918 | 18 | 155 | 3.2 | 4.8 | 0.00 | 0.00 | 0.00 | 68 | 1018.3 |
| 20260507011437 | 18 | 171 | 1.6 | 4.8 | 0.00 | 0.00 | 0.00 | 67 | 1018.3 |
| 20260507010915 | 18 | 155 | 3.2 | 6.4 | 0.00 | 0.00 | 0.00 | 67 | 1018.1 |
| 20260507010419 | 18 | 156 | 1.6 | 4.8 | 0.00 | 0.00 | 0.00 | 67 | 1018.2 |
| 20260507005918 | 19 | 192 | 3.2 | 3.2 | 0.00 | 0.00 | 0.00 | 67 | 1018.1 |
| 20260507005418 | 19 | 188 | 3.2 | 3.2 | 0.00 | 0.00 | 0.00 | 66 | 1018.2 |
| 20260507004937 | 19 | 171 | 3.2 | 4.8 | 0.00 | 0.00 | 0.00 | 67 | 1017.9 |
| 20260507004439 | 19 | 193 | 3.2 | 6.4 | 0.00 | 0.00 | 0.00 | 66 | 1018.1 |
| 20260507003917 | 20 | 156 | 3.2 | 4.8 | 0.00 | 0.00 | 0.00 | 65 | 1018.1 |
| 20260507003416 | 20 | 176 | 3.2 | 4.8 | 0.00 | 0.00 | 0.00 | 64 | 1018.0 |
| 20260507002920 | 20 | 159 | 3.2 | 8.0 | 0.00 | 0.00 | 0.00 | 64 | 1017.8 |
| 20260507002439 | 20 | 164 | 3.2 | 6.4 | 0.00 | 0.00 | 0.00 | 63 | 1018.2 |
| 20260507001917 | 20 | 237 | 4.8 | 9.7 | 0.00 | 0.00 | 0.00 | 63 | 1017.9 |
| 20260507001416 | 21 | 171 | 4.8 | 6.4 | 0.00 | 0.00 | 0.00 | 63 | 1018.0 |
| 20260507000919 | 21 | 160 | 4.8 | 8.0 | 0.00 | 0.00 | 0.00 | 62 | 1018.1 |
| 20260507000420 | 21 | 159 | 4.8 | 8.0 | 0.00 | 0.00 | 0.00 | 62 | 1018.0 |
| 20260506235916 | 21 | 179 | 3.2 | 6.4 | 0.00 | 0.00 | 0.00 | 61 | 1018.0 |
| 20260506235420 | 21 | 194 | 1.6 | 6.4 | 0.00 | 0.00 | 0.00 | 60 | 1018.2 |
| 20260506234918 | 22 | 195 | 3.2 | 4.8 | 0.00 | 0.00 | 0.00 | 60 | 1018.1 |
| 20260506234417 | 22 | 177 | 3.2 | 6.4 | 0.00 | 0.00 | 0.00 | 59 | 1018.2 |
| 20260506233915 | 22 | 172 | 3.2 | 8.0 | 0.00 | 0.00 | 0.00 | 58 | 1018.1 |
| 20260506233420 | 22 | 180 | 3.2 | 6.4 | 0.00 | 0.00 | 0.00 | 57 | 1018.3 |
| 20260506232918 | 23 | 210 | 4.8 | 9.7 | 0.00 | 0.00 | 0.00 | 58 | 1018.1 |
| 20260506232437 | 23 | 183 | 3.2 | 6.4 | 0.00 | 0.00 | 0.00 | 57 | 1018.0 |
| 20260506231916 | 23 | 160 | 4.8 | 8.0 | 0.00 | 0.00 | 0.00 | 57 | 1018.1 |
| 20260506231420 | 23 | 143 | 3.2 | 4.8 | 0.00 | 0.00 | 0.00 | 56 | 1017.9 |
| 20260506230918 | 23 | 239 | 4.8 | 9.7 | 0.00 | 0.00 | 0.00 | 57 | 1018.2 |
| 20260506230457 | 23 | 155 | 4.8 | 9.7 | 0.00 | 0.00 | 0.00 | 57 | 1018.2 |
| 20260506225937 | 23 | 208 | 3.2 | 4.8 | 0.00 | 0.00 | 0.00 | 57 | 1018.2 |
| 20260506225420 | 23 | 201 | 3.2 | 4.8 | 0.00 | 0.00 | 0.00 | 57 | 1018.2 |
| 20260506224918 | 24 | 157 | 3.2 | 4.8 | 0.00 | 0.00 | 0.00 | 56 | 1018.4 |
| 20260506224437 | 24 | 219 | 4.8 | 6.4 | 0.00 | 0.00 | 0.00 | 56 | 1018.4 |
| 20260506223936 | 24 | 174 | 3.2 | 4.8 | 0.00 | 0.00 | 0.00 | 58 | 1018.2 |
| 20260506223419 | 24 | 154 | 4.8 | 8.0 | 0.00 | 0.00 | 0.00 | 58 | 1018.3 |
| 20260506222939 | 23 | 205 | 3.2 | 3.2 | 0.00 | 0.00 | 0.00 | 59 | 1018.4 |
| 20260506222438 | 23 | 163 | 4.8 | 6.4 | 0.00 | 0.00 | 0.00 | 59 | 1018.4 |
| 20260506221915 | 23 | 217 | 3.2 | 6.4 | 0.00 | 0.00 | 0.00 | 59 | 1018.4 |
| 20260506221439 | 23 | 185 | 3.2 | 8.0 | 0.00 | 0.00 | 0.00 | 60 | 1018.5 |
| 20260506220918 | 23 | 161 | 4.8 | 6.4 | 0.00 | 0.00 | 0.00 | 60 | 1018.5 |
| 20260506220418 | 23 | 157 | 3.2 | 6.4 | 0.00 | 0.00 | 0.00 | 60 | 1018.6 |
| 20260506215916 | 23 | 141 | 1.6 | 3.2 | 0.00 | 0.00 | 0.00 | 59 | 1018.6 |
| 20260506215419 | 23 | 132 | 1.6 | 4.8 | 0.00 | 0.00 | 0.00 | 58 | 1018.9 |
| 20260506214918 | 23 | 199 | 1.6 | 4.8 | 0.00 | 0.00 | 0.00 | 60 | 1018.6 |
| 20260506214417 | 23 | 181 | 3.2 | 3.2 | 0.00 | 0.00 | 0.00 | 58 | 1018.6 |
| 20260506213915 | 23 | 127 | 3.2 | 4.8 | 0.00 | 0.00 | 0.00 | 56 | 1018.9 |
| 20260506213419 | 23 | 273 | 1.6 | 3.2 | 0.00 | 0.00 | 0.00 | 54 | 1018.8 |
| 20260506212918 | 23 | 148 | 4.8 | 6.4 | 0.00 | 0.00 | 0.00 | 53 | 1018.6 |
| 20260506212416 | 23 | 128 | 6.4 | 9.7 | 0.00 | 0.00 | 0.00 | 53 | 1018.8 |
| 20260506211915 | 23 | 135 | 6.4 | 9.7 | 0.00 | 0.00 | 0.00 | 53 | 1018.8 |
| 20260506211439 | 23 | 201 | 1.6 | 3.2 | 0.00 | 0.00 | 0.00 | 52 | 1018.9 |
| 20260506210917 | 23 | 172 | 3.2 | 6.4 | 0.00 | 0.00 | 0.00 | 53 | 1018.8 |
| 20260506210416 | 23 | 34 | 1.6 | 3.2 | 0.00 | 0.00 | 0.00 | 54 | 1019.0 |
| 20260506205915 | 23 | 145 | 8.0 | 9.7 | 0.00 | 0.00 | 0.00 | 53 | 1019.1 |
| 20260506205419 | 23 | 201 | 3.2 | 9.7 | 0.00 | 0.00 | 0.00 | 53 | 1018.9 |
| 20260506204918 | 23 | 130 | 11.3 | 17.7 | 0.00 | 0.00 | 0.00 | 53 | 1019.1 |
| 20260506204416 | 23 | 182 | 1.6 | 3.2 | 0.00 | 0.00 | 0.00 | 56 | 1019.0 |
| 20260506203915 | 23 | 216 | 3.2 | 4.8 | 0.00 | 0.00 | 0.00 | 53 | 1019.2 |
| 20260506203419 | 23 | 112 | 8.0 | 9.7 | 0.00 | 0.00 | 0.00 | 56 | 1019.2 |
| 20260506202938 | 23 | 182 | 3.2 | 4.8 | 0.00 | 0.00 | 0.00 | 58 | 1019.2 |
| 20260506202417 | 23 | 148 | 4.8 | 9.7 | 0.00 | 0.00 | 0.00 | 56 | 1019.4 |
| 20260506201915 | 22 | 153 | 4.8 | 4.8 | 0.00 | 0.00 | 0.00 | 59 | 1019.3 |
| 20260506201419 | 22 | 180 | 4.8 | 4.8 | 0.00 | 0.00 | 0.00 | 57 | 1019.4 |
| 20260506200917 | 22 | 191 | 4.8 | 6.4 | 0.00 | 0.00 | 0.00 | 59 | 1019.6 |
| 20260506200417 | 22 | 125 | 6.4 | 9.7 | 0.00 | 0.00 | 0.00 | 57 | 1019.6 |
| 20260506195920 | 22 | 180 | 4.8 | 6.4 | 0.00 | 0.00 | 0.00 | 58 | 1019.5 |
| 20260506195419 | 22 | 156 | 8.0 | 16.1 | 0.00 | 0.00 | 0.00 | 60 | 1019.6 |
| 20260506194918 | 22 | 124 | 3.2 | 6.4 | 0.00 | 0.00 | 0.00 | 60 | 1019.7 |
| 20260506194416 | 22 | 143 | 6.4 | 9.7 | 0.00 | 0.00 | 0.00 | 59 | 1019.5 |
| 20260506193920 | 22 | 137 | 4.8 | 6.4 | 0.00 | 0.00 | 0.00 | 59 | 1019.7 |
| 20260506193439 | 22 | 137 | 6.4 | 8.0 | 0.00 | 0.00 | 0.00 | 60 | 1019.6 |
| 20260506192917 | 22 | 110 | 4.8 | 9.7 | 0.00 | 0.00 | 0.00 | 58 | 1019.8 |
| 20260506192416 | 23 | 135 | 4.8 | 8.0 | 0.00 | 0.00 | 0.00 | 59 | 1019.8 |
| 20260506191920 | 22 | 170 | 4.8 | 6.4 | 0.00 | 0.00 | 0.00 | 62 | 1019.9 |
| 20260506191418 | 22 | 121 | 9.7 | 12.9 | 0.00 | 0.00 | 0.00 | 62 | 1020.0 |
| 20260506190937 | 21 | 152 | 4.8 | 6.4 | 0.00 | 0.00 | 0.00 | 62 | 1019.8 |
| 20260506190416 | 21 | 182 | 3.2 | 4.8 | 0.00 | 0.00 | 0.00 | 62 | 1020.0 |
| 20260506185920 | 21 | 132 | 4.8 | 9.7 | 0.00 | 0.00 | 0.00 | 65 | 1020.2 |
| 20260506185419 | 21 | 139 | 4.8 | 8.0 | 0.00 | 0.00 | 0.00 | 65 | 1020.1 |
| 20260506184917 | 21 | 208 | 4.8 | 4.8 | 0.00 | 0.00 | 0.00 | 65 | 1020.2 |
| 20260506184416 | 20 | 166 | 4.8 | 8.0 | 0.00 | 0.00 | 0.00 | 69 | 1020.0 |
| 20260506183920 | 20 | 220 | 1.6 | 3.2 | 0.00 | 0.00 | 0.00 | 68 | 1020.1 |
| 20260506183418 | 19 | 110 | 3.2 | 4.8 | 0.00 | 0.00 | 0.00 | 70 | 1020.2 |
| 20260506182917 | 18 | 168 | 1.6 | 3.2 | 0.00 | 0.00 | 0.00 | 71 | 1020.2 |
| 20260506182436 | 18 | 226 | 0.0 | 3.2 | 0.00 | 0.00 | 0.00 | 70 | 1020.4 |
| 20260506181920 | 18 | 209 | 3.2 | 3.2 | 0.00 | 0.00 | 0.00 | 73 | 1020.0 |
| 20260506181418 | 18 | 74 | 1.6 | 3.2 | 0.00 | 0.00 | 0.00 | 72 | 1020.0 |
| 20260506180917 | 18 | 0 | 0.0 | 0.0 | 0.00 | 0.00 | 0.00 | 71 | 1020.1 |
| 20260506180415 | 18 | 129 | 4.8 | 6.4 | 0.00 | 0.00 | 0.00 | 71 | 1020.3 |
| 20260506175919 | 19 | 162 | 3.2 | 4.8 | 0.00 | 0.00 | 0.00 | 71 | 1020.2 |
| 20260506175419 | 19 | 159 | 1.6 | 4.8 | 0.00 | 0.00 | 0.00 | 72 | 1020.1 |
| 20260506174917 | 18 | 168 | 3.2 | 4.8 | 0.00 | 0.00 | 0.00 | 72 | 1020.1 |
| 20260506174440 | 18 | 220 | 3.2 | 3.2 | 0.00 | 0.00 | 0.00 | 70 | 1020.2 |
| 20260506173918 | 18 | 182 | 3.2 | 3.2 | 0.00 | 0.00 | 0.00 | 73 | 1020.2 |
| 20260506173417 | 18 | 130 | 6.4 | 9.7 | 0.00 | 0.00 | 0.00 | 73 | 1020.1 |
| 20260506172916 | 17 | 135 | 8.0 | 11.3 | 0.00 | 0.00 | 0.00 | 74 | 1020.2 |
| 20260506172419 | 17 | 193 | 3.2 | 4.8 | 0.00 | 0.00 | 0.00 | 74 | 1020.3 |
| 20260506171918 | 17 | 170 | 3.2 | 4.8 | 0.00 | 0.00 | 0.00 | 76 | 1020.1 |
| 20260506171437 | 17 | 155 | 4.8 | 9.7 | 0.00 | 0.00 | 0.00 | 75 | 1020.3 |
| 20260506170936 | 17 | 167 | 6.4 | 8.0 | 0.00 | 0.00 | 0.00 | 76 | 1020.2 |
| 20260506170440 | 17 | 150 | 3.2 | 6.4 | 0.00 | 0.00 | 0.00 | 75 | 1020.2 |
| 20260506165918 | 16 | 187 | 1.6 | 3.2 | 0.00 | 0.00 | 0.00 | 76 | 1020.4 |
| 20260506165437 | 16 | 136 | 8.0 | 9.7 | 0.00 | 0.00 | 0.00 | 79 | 1020.4 |
| 20260506164936 | 16 | 228 | 3.2 | 4.8 | 0.00 | 0.00 | 0.00 | 77 | 1020.4 |
| 20260506164420 | 16 | 128 | 3.2 | 8.0 | 0.00 | 0.00 | 0.00 | 78 | 1020.2 |
| 20260506163958 | 15 | 141 | 6.4 | 9.7 | 0.00 | 0.00 | 0.00 | 81 | 1020.1 |
| 20260506163417 | 15 | 224 | 3.2 | 4.8 | 0.00 | 0.00 | 0.00 | 81 | 1020.1 |
| 20260506162915 | 15 | 177 | 1.6 | 3.2 | 0.00 | 0.00 | 0.00 | 82 | 1020.2 |
| 20260506162419 | 15 | 140 | 4.8 | 6.4 | 0.00 | 0.00 | 0.00 | 83 | 1020.2 |
| 20260506161918 | 14 | 106 | 1.6 | 6.4 | 0.00 | 0.00 | 0.00 | 84 | 1020.4 |
| 20260506161416 | 14 | 147 | 3.2 | 4.8 | 0.00 | 0.00 | 0.00 | 83 | 1020.3 |
| 20260506160916 | 14 | 207 | 3.2 | 4.8 | 0.00 | 0.00 | 0.00 | 83 | 1020.2 |
| 20260506160419 | 13 | 198 | 3.2 | 4.8 | 0.00 | 0.00 | 0.00 | 84 | 1020.6 |
| 20260506155918 | 13 | 150 | 4.8 | 8.0 | 0.00 | 0.00 | 0.00 | 86 | 1020.4 |
| 20260506155417 | 13 | 145 | 8.0 | 9.7 | 0.00 | 0.00 | 0.00 | 86 | 1020.4 |
| 20260506154916 | 13 | 176 | 3.2 | 3.2 | 0.00 | 0.00 | 0.00 | 86 | 1020.3 |
| 20260506154420 | 13 | 140 | 4.8 | 6.4 | 0.00 | 0.00 | 0.00 | 87 | 1020.2 |
| 20260506153918 | 13 | 174 | 0.0 | 3.2 | 0.00 | 0.00 | 0.00 | 88 | 1020.4 |
| 20260506153416 | 13 | 193 | 1.6 | 3.2 | 0.00 | 0.00 | 0.00 | 88 | 1020.4 |
| 20260506152916 | 12 | 173 | 3.2 | 4.8 | 0.00 | 0.00 | 0.00 | 89 | 1020.3 |
| 20260506152419 | 12 | 0 | 0.0 | 1.6 | 0.00 | 0.00 | 0.00 | 89 | 1020.3 |
| 20260506151939 | 12 | 0 | 0.0 | 1.6 | 0.00 | 0.00 | 0.00 | 89 | 1020.3 |
| 20260506151417 | 12 | 0 | 0.0 | 0.0 | 0.00 | 0.00 | 0.00 | 90 | 1020.1 |
| 20260506150936 | 12 | 0 | 0.0 | 0.0 | 0.00 | 0.00 | 0.00 | 90 | 1020.1 |
| 20260506150420 | 12 | 0 | 0.0 | 1.6 | 0.00 | 0.00 | 0.00 | 90 | 1020.0 |
| 20260506145918 | 12 | 0 | 0.0 | 0.0 | 0.00 | 0.00 | 0.00 | 90 | 1020.2 |
| 20260506145437 | 12 | 199 | 1.6 | 3.2 | 0.00 | 0.00 | 0.00 | 90 | 1020.2 |
| 20260506144915 | 12 | 191 | 1.6 | 3.2 | 0.00 | 0.00 | 0.00 | 90 | 1020.3 |
| 20260506144419 | 12 | 147 | 0.0 | 1.6 | 0.00 | 0.00 | 0.00 | 90 | 1020.2 |
| 20260506143918 | 12 | 206 | 1.6 | 3.2 | 0.00 | 0.00 | 0.00 | 91 | 1020.4 |
| 20260506143417 | 12 | 189 | 1.6 | 3.2 | 0.00 | 0.00 | 0.00 | 91 | 1020.1 |
| 20260506142916 | 12 | 148 | 1.6 | 3.2 | 0.00 | 0.00 | 0.00 | 91 | 1020.1 |
| 20260506142419 | 12 | 182 | 1.6 | 3.2 | 0.00 | 0.00 | 0.00 | 92 | 1020.0 |
| 20260506141918 | 12 | 199 | 1.6 | 3.2 | 0.00 | 0.00 | 0.00 | 92 | 1020.1 |
| 20260506141437 | 11 | 201 | 1.6 | 3.2 | 0.00 | 0.03 | 0.00 | 92 | 1020.3 |
| 20260506140915 | 11 | 188 | 1.6 | 3.2 | 0.00 | 0.03 | 0.00 | 92 | 1020.0 |
| 20260506140419 | 11 | 190 | 1.6 | 3.2 | 0.00 | 0.03 | 0.00 | 92 | 1020.0 |
| 20260506135918 | 11 | 171 | 1.6 | 3.2 | 0.00 | 0.03 | 0.00 | 92 | 1019.9 |
| 20260506135417 | 11 | 147 | 1.6 | 3.2 | 0.00 | 0.03 | 0.00 | 92 | 1019.8 |
| 20260506134916 | 11 | 0 | 0.0 | 1.6 | 0.00 | 0.03 | 0.00 | 92 | 1019.8 |
| 20260506134419 | 11 | 0 | 0.0 | 1.6 | 0.00 | 0.03 | 0.00 | 92 | 1019.8 |
| 20260506133919 | 11 | 0 | 0.0 | 3.2 | 0.00 | 0.03 | 0.00 | 92 | 1020.0 |
| 20260506133438 | 11 | 118 | 1.6 | 3.2 | 0.00 | 0.03 | 0.00 | 92 | 1020.0 |
| 20260506132916 | 11 | 201 | 0.0 | 1.6 | 0.00 | 0.03 | 0.00 | 92 | 1019.8 |
| 20260506132420 | 11 | 183 | 1.6 | 3.2 | 0.00 | 0.03 | 0.00 | 92 | 1019.7 |
| 20260506131919 | 11 | 0 | 0.0 | 1.6 | 0.00 | 0.03 | 0.00 | 92 | 1019.7 |
| 20260506131417 | 11 | 0 | 0.0 | 0.0 | 0.00 | 0.03 | 0.00 | 92 | 1019.5 |
| 20260506130916 | 11 | 0 | 0.0 | 1.6 | 0.00 | 0.03 | 0.00 | 92 | 1019.6 |
| 20260506130419 | 11 | 0 | 0.0 | 3.2 | 0.00 | 0.03 | 0.00 | 92 | 1019.6 |
| 20260506125918 | 11 | 0 | 0.0 | 0.0 | 0.00 | 0.03 | 0.00 | 92 | 1019.6 |
| 20260506125417 | 11 | 0 | 0.0 | 1.6 | 0.00 | 0.03 | 0.00 | 92 | 1019.8 |
| 20260506124916 | 11 | 120 | 0.0 | 3.2 | 0.00 | 0.03 | 0.00 | 92 | 1019.4 |
| 20260506124440 | 11 | 0 | 0.0 | 0.0 | 0.00 | 0.03 | 0.00 | 92 | 1019.5 |
| 20260506123919 | 11 | 0 | 0.0 | 0.0 | 0.00 | 0.03 | 0.00 | 92 | 1019.3 |
| 20260506123438 | 11 | 0 | 0.0 | 0.0 | 0.00 | 0.03 | 0.00 | 91 | 1019.4 |
| 20260506122937 | 11 | 0 | 0.0 | 1.6 | 0.00 | 0.03 | 0.00 | 91 | 1019.5 |
| 20260506122420 | 11 | 0 | 0.0 | 1.6 | 0.00 | 0.03 | 0.00 | 91 | 1019.5 |
| 20260506121919 | 11 | 0 | 0.0 | 0.0 | 0.00 | 0.03 | 0.00 | 91 | 1019.4 |
| 20260506121418 | 11 | 0 | 0.0 | 0.0 | 0.00 | 0.03 | 0.00 | 91 | 1019.3 |
| 20260506120917 | 11 | 204 | 0.0 | 1.6 | 0.00 | 0.03 | 0.00 | 91 | 1019.2 |
| 20260506120420 | 11 | 0 | 0.0 | 1.6 | 0.00 | 0.03 | 0.00 | 91 | 1019.3 |
| 20260506115919 | 11 | 0 | 0.0 | 0.0 | 0.00 | 0.03 | 0.00 | 91 | 1019.2 |
| 20260506115417 | 11 | 0 | 0.0 | 0.0 | 0.00 | 0.03 | 0.00 | 91 | 1019.2 |
| 20260506114916 | 11 | 0 | 0.0 | 0.0 | 0.00 | 0.03 | 0.00 | 91 | 1019.2 |
| 20260506114456 | 11 | 226 | 0.0 | 1.6 | 0.00 | 0.03 | 0.00 | 91 | 1019.2 |
| 20260506113919 | 11 | 0 | 0.0 | 0.0 | 0.00 | 0.03 | 0.00 | 91 | 1019.2 |
| 20260506113418 | 11 | 0 | 0.0 | 0.0 | 0.00 | 0.03 | 0.00 | 91 | 1019.2 |
| 20260506112917 | 11 | 0 | 0.0 | 0.0 | 0.00 | 0.03 | 0.00 | 91 | 1019.2 |
| 20260506112415 | 11 | 0 | 0.0 | 1.6 | 0.00 | 0.03 | 0.00 | 91 | 1019.1 |
| 20260506111919 | 11 | 0 | 0.0 | 1.6 | 0.00 | 0.03 | 0.00 | 91 | 1019.1 |
| 20260506111417 | 11 | 0 | 0.0 | 1.6 | 0.00 | 0.03 | 0.00 | 91 | 1019.0 |
| 20260506110917 | 11 | 0 | 0.0 | 1.6 | 0.00 | 0.03 | 0.00 | 91 | 1019.0 |
| 20260506110415 | 11 | 0 | 0.0 | 0.0 | 0.00 | 0.03 | 0.00 | 91 | 1019.1 |
| 20260506105920 | 11 | 132 | 0.0 | 1.6 | 0.00 | 0.03 | 0.00 | 91 | 1019.0 |
| 20260506105418 | 11 | 0 | 0.0 | 3.2 | 0.00 | 0.03 | 0.00 | 91 | 1019.0 |
| 20260506104917 | 11 | 0 | 0.0 | 1.6 | 0.00 | 0.03 | 0.00 | 91 | 1018.8 |
| 20260506104436 | 11 | 0 | 0.0 | 0.0 | 0.00 | 0.03 | 0.00 | 91 | 1018.8 |
| 20260506103920 | 11 | 0 | 0.0 | 1.6 | 0.00 | 0.03 | 0.00 | 91 | 1018.8 |
| 20260506103418 | 10 | 0 | 0.0 | 1.6 | 0.00 | 0.03 | 0.00 | 91 | 1018.9 |
| 20260506102917 | 10 | 0 | 0.0 | 1.6 | 0.00 | 0.03 | 0.00 | 91 | 1018.6 |
| 20260506102436 | 10 | 137 | 1.6 | 1.6 | 0.00 | 0.03 | 0.00 | 91 | 1018.8 |
| 20260506101919 | 10 | 216 | 0.0 | 3.2 | 0.00 | 0.03 | 0.00 | 91 | 1018.7 |
| 20260506101418 | 10 | 0 | 0.0 | 1.6 | 0.00 | 0.03 | 0.00 | 91 | 1018.6 |
| 20260506100917 | 10 | 183 | 0.0 | 1.6 | 0.00 | 0.03 | 0.00 | 91 | 1018.7 |
| 20260506100416 | 10 | 0 | 0.0 | 0.0 | 0.00 | 0.03 | 0.00 | 91 | 1018.7 |
| 20260506095919 | 10 | 0 | 0.0 | 0.0 | 0.00 | 0.03 | 0.00 | 91 | 1019.0 |
| 20260506095418 | 10 | 0 | 0.0 | 0.0 | 0.00 | 0.03 | 0.00 | 91 | 1018.6 |
| 20260506094917 | 10 | 0 | 0.0 | 0.0 | 0.00 | 0.03 | 0.00 | 91 | 1018.6 |
| 20260506094436 | 10 | 0 | 0.0 | 1.6 | 0.00 | 0.03 | 0.00 | 91 | 1018.7 |
| 20260506093940 | 10 | 0 | 0.0 | 0.0 | 0.00 | 0.03 | 0.00 | 91 | 1018.8 |
| 20260506093418 | 10 | 204 | 0.0 | 1.6 | 0.00 | 0.03 | 0.00 | 91 | 1018.7 |
| 20260506092916 | 10 | 0 | 0.0 | 0.0 | 0.00 | 0.03 | 0.00 | 91 | 1018.8 |
| 20260506092416 | 10 | 0 | 0.0 | 1.6 | 0.00 | 0.03 | 0.00 | 91 | 1018.7 |
| 20260506091920 | 10 | 0 | 0.0 | 1.6 | 0.00 | 0.03 | 0.00 | 91 | 1018.8 |
| 20260506091419 | 10 | 0 | 0.0 | 0.0 | 0.00 | 0.03 | 0.00 | 91 | 1018.7 |
| 20260506090917 | 10 | 0 | 0.0 | 0.0 | 0.00 | 0.03 | 0.00 | 91 | 1018.8 |
| 20260506090416 | 10 | 212 | 0.0 | 1.6 | 0.00 | 0.05 | 0.00 | 91 | 1018.8 |
| 20260506085920 | 10 | 201 | 0.0 | 1.6 | 0.00 | 0.05 | 0.00 | 91 | 1018.6 |
| 20260506085418 | 10 | 0 | 0.0 | 0.0 | 0.00 | 0.05 | 0.00 | 91 | 1018.9 |
| 20260506083940 | 9 | 0 | 0.0 | 1.6 | 0.00 | 0.08 | 0.00 | 91 | 1018.9 |
| 20260506083418 | 9 | 0 | 0.0 | 0.0 | 0.00 | 0.08 | 0.00 | 91 | 1019.0 |
| 20260506082938 | 9 | 0 | 0.0 | 1.6 | 0.00 | 0.08 | 0.00 | 91 | 1018.9 |
| 20260506082416 | 9 | 0 | 0.0 | 0.0 | 0.00 | 0.08 | 0.00 | 91 | 1018.8 |
| 20260506081940 | 9 | 211 | 0.0 | 1.6 | 0.00 | 0.08 | 0.00 | 91 | 1018.7 |
| 20260506081418 | 8 | 0 | 0.0 | 1.6 | 0.00 | 0.08 | 0.00 | 90 | 1018.8 |
| 20260506080917 | 8 | 0 | 0.0 | 1.6 | 0.00 | 0.10 | 0.00 | 90 | 1018.7 |
| 20260506080437 | 8 | 0 | 0.0 | 0.0 | 0.00 | 0.10 | 0.00 | 90 | 1018.8 |